Time;durP1;ratioP1;P1;durP2;ratioP2;P2;SDS_P1;SDS_P2;PMS_P1;PMS_P2;Temp;Humidity;BMP_temperature;BMP_pressure;BME280_temperature;BME280_humidity;BME280_pressure;Samples;Min_cycle;Max_cycle;Signal;HPM_P1;HPM_P2
2023/03/13 00:00:56;;;;;;;6.35;1.70;;;11.80;99.90;;;;;;4976297;28;20460;-74
2023/03/13 00:03:21;;;;;;;9.68;1.50;;;11.80;99.90;;;;;;4961673;28;20092;-74
2023/03/13 00:05:47;;;;;;;9.98;1.63;;;11.80;99.90;;;;;;4976893;28;20120;-74
2023/03/13 00:08:13;;;;;;;10.13;1.92;;;11.80;99.90;;;;;;4993267;28;20357;-72
2023/03/13 00:10:40;;;;;;;7.22;1.45;;;11.80;99.90;;;;;;4974112;28;20089;-72
2023/03/13 00:13:07;;;;;;;6.15;1.30;;;11.80;99.90;;;;;;4992688;28;20057;-72
2023/03/13 00:15:33;;;;;;;7.13;1.65;;;11.80;99.90;;;;;;4970072;28;20027;-72
2023/03/13 00:17:59;;;;;;;8.30;1.50;;;11.80;99.90;;;;;;4983524;28;20030;-76
2023/03/13 00:20:24;;;;;;;5.22;1.33;;;11.80;99.90;;;;;;4982144;28;20027;-73
2023/03/13 00:22:50;;;;;;;7.57;1.63;;;11.80;99.90;;;;;;4975502;28;20035;-72
2023/03/13 00:25:16;;;;;;;4.50;1.65;;;11.80;99.90;;;;;;4977611;28;20088;-72
2023/03/13 00:27:41;;;;;;;6.40;1.10;;;11.80;99.90;;;;;;4986544;28;20046;-73
2023/03/13 00:30:09;;;;;;;10.68;1.40;;;11.80;99.90;;;;;;4956486;28;20448;-72
2023/03/13 00:32:43;;;;;;;8.32;1.40;;;11.80;99.90;;;;;;4974329;28;20105;-72
2023/03/13 00:35:09;;;;;;;10.45;1.50;;;11.80;99.90;;;;;;4975072;28;20065;-72
2023/03/13 00:37:34;;;;;;;7.55;1.70;;;11.80;99.90;;;;;;4975512;28;20054;-72
2023/03/13 00:40:00;;;;;;;5.65;1.20;;;11.80;99.90;;;;;;4968805;28;20033;-75
2023/03/13 00:42:25;;;;;;;8.07;1.75;;;11.80;99.90;;;;;;4986469;28;20114;-71
2023/03/13 00:44:51;;;;;;;7.45;1.58;;;11.80;99.90;;;;;;4959113;28;20110;-70
2023/03/13 00:47:17;;;;;;;4.90;1.42;;;11.80;99.90;;;;;;4977002;28;20573;-72
2023/03/13 00:49:42;;;;;;;10.82;1.35;;;11.90;99.90;;;;;;4987743;28;20121;-71
2023/03/13 00:52:08;;;;;;;6.13;1.55;;;11.90;99.90;;;;;;4981749;28;20428;-72
2023/03/13 00:54:33;;;;;;;6.75;1.38;;;11.90;99.90;;;;;;4970475;28;20023;-72
2023/03/13 00:56:59;;;;;;;8.60;1.70;;;11.90;99.90;;;;;;4976286;28;20047;-78
2023/03/13 00:59:24;;;;;;;5.05;1.60;;;11.90;99.90;;;;;;4970807;28;20027;-74
2023/03/13 01:01:50;;;;;;;3.35;1.25;;;11.90;99.90;;;;;;4973287;28;20092;-72
2023/03/13 01:04:15;;;;;;;8.25;1.20;;;11.90;99.90;;;;;;4955390;28;20042;-72
2023/03/13 01:06:41;;;;;;;8.80;1.65;;;11.90;99.90;;;;;;4955719;28;20464;-72
2023/03/13 01:09:10;;;;;;;6.22;1.30;;;11.90;99.90;;;;;;4975640;28;20054;-72
2023/03/13 01:11:39;;;;;;;6.72;1.27;;;11.90;99.90;;;;;;4991517;28;20034;-72
2023/03/13 01:14:08;;;;;;;4.25;1.00;;;12.00;99.90;;;;;;4989524;28;20031;-72
2023/03/13 01:16:34;;;;;;;7.30;1.05;;;11.90;99.90;;;;;;4966695;28;20062;-72
2023/03/13 01:19:03;;;;;;;8.90;1.75;;;11.90;99.90;;;;;;4966456;28;20026;-73
2023/03/13 01:21:29;;;;;;;5.38;1.20;;;12.00;99.90;;;;;;4959095;28;20122;-72
2023/03/13 01:23:55;;;;;;;6.75;1.13;;;12.00;99.90;;;;;;4955995;28;20030;-72
2023/03/13 01:26:21;;;;;;;6.45;1.30;;;12.00;99.90;;;;;;4972225;28;20031;-72
2023/03/13 01:28:47;;;;;;;6.13;0.90;;;12.00;99.90;;;;;;4955614;28;20077;-72
2023/03/13 01:31:18;;;;;;;5.03;0.90;;;12.00;99.90;;;;;;4955556;28;20023;-72
2023/03/13 01:33:45;;;;;;;8.60;1.30;;;12.00;99.90;;;;;;4955849;28;20027;-72
2023/03/13 01:36:11;;;;;;;4.57;1.13;;;12.00;99.90;;;;;;4972752;28;20031;-72
2023/03/13 01:38:38;;;;;;;5.35;1.08;;;12.00;99.90;;;;;;4972559;28;20034;-72
2023/03/13 01:41:05;;;;;;;6.90;1.30;;;12.00;99.90;;;;;;4954861;28;20027;-72
2023/03/13 01:43:32;;;;;;;5.90;1.15;;;12.10;99.90;;;;;;4972967;28;20073;-72
2023/03/13 01:46:00;;;;;;;4.47;0.82;;;12.10;99.90;;;;;;4954873;28;20031;-74
2023/03/13 01:48:38;;;;;;;6.93;1.08;;;12.10;99.90;;;;;;4972718;28;20221;-72
2023/03/13 01:51:09;;;;;;;8.38;1.67;;;12.10;99.90;;;;;;4972513;28;20023;-73
2023/03/13 01:53:38;;;;;;;7.10;0.98;;;12.10;99.90;;;;;;4955966;28;20066;-73
2023/03/13 01:56:10;;;;;;;2.05;0.75;;;12.10;99.90;;;;;;4949836;28;20055;-75
2023/03/13 01:58:37;;;;;;;7.20;1.40;;;12.10;99.90;;;;;;4954336;29;20556;-73
2023/03/13 02:01:04;;;;;;;3.85;0.80;;;12.20;99.90;;;;;;4935985;29;20170;-74
2023/03/13 02:03:30;;;;;;;3.55;0.90;;;12.20;99.90;;;;;;4936562;29;20028;-73
2023/03/13 02:05:58;;;;;;;7.07;0.88;;;12.20;99.90;;;;;;4936333;29;20035;-73
2023/03/13 02:08:30;;;;;;;5.35;0.80;;;12.20;99.90;;;;;;4935785;29;20507;-72
2023/03/13 02:11:14;;;;;;;1.77;0.60;;;12.10;99.90;;;;;;4953053;28;20055;-73
2023/03/13 02:13:41;;;;;;;5.63;1.33;;;12.10;99.90;;;;;;4953773;29;20027;-73
2023/03/13 02:16:08;;;;;;;4.70;0.77;;;12.10;99.90;;;;;;4935895;29;20130;-74
2023/03/13 02:18:35;;;;;;;4.43;0.75;;;12.10;99.90;;;;;;4954659;28;20035;-75
2023/03/13 02:21:36;;;;;;;5.85;1.02;;;12.10;99.90;;;;;;4954377;29;20034;-75
2023/03/13 02:24:06;;;;;;;2.25;0.60;;;12.10;99.90;;;;;;4923984;28;20050;-75
2023/03/13 02:26:32;;;;;;;1.77;0.50;;;12.20;99.90;;;;;;4936734;29;20031;-74
2023/03/13 02:28:58;;;;;;;4.78;1.10;;;12.10;99.90;;;;;;4936791;29;20035;-74
2023/03/13 02:31:23;;;;;;;4.65;0.70;;;12.10;99.90;;;;;;4953655;29;20035;-74
2023/03/13 02:33:49;;;;;;;4.05;0.80;;;12.10;99.90;;;;;;4936712;29;20117;-74
2023/03/13 02:36:16;;;;;;;2.67;0.70;;;12.10;99.90;;;;;;4935882;29;20024;-74
2023/03/13 02:38:52;;;;;;;3.00;0.70;;;12.10;99.90;;;;;;4935813;29;20136;-74
2023/03/13 02:41:20;;;;;;;5.38;1.00;;;12.10;99.90;;;;;;4948219;28;20031;-74
2023/03/13 02:43:45;;;;;;;5.95;0.80;;;12.10;99.90;;;;;;4955643;28;20059;-74
2023/03/13 02:46:14;;;;;;;3.22;0.70;;;12.10;99.90;;;;;;4958585;28;20392;-75
2023/03/13 02:48:43;;;;;;;3.03;0.60;;;12.10;99.90;;;;;;4959206;28;20045;-74
2023/03/13 02:51:18;;;;;;;5.57;0.85;;;12.10;99.90;;;;;;4958075;28;20042;-75
2023/03/13 02:53:47;;;;;;;2.65;0.60;;;12.10;99.90;;;;;;4959001;28;20049;-75
2023/03/13 02:56:14;;;;;;;1.88;0.70;;;12.10;99.90;;;;;;4958074;28;20054;-76
2023/03/13 02:58:42;;;;;;;1.15;0.60;;;12.10;99.90;;;;;;4959071;28;20031;-75
2023/03/13 03:01:08;;;;;;;3.85;0.95;;;12.20;99.90;;;;;;4975546;28;20110;-75
2023/03/13 03:03:35;;;;;;;3.88;0.80;;;12.10;99.90;;;;;;4958974;28;20455;-75
2023/03/13 03:06:02;;;;;;;3.15;0.95;;;12.20;99.90;;;;;;4958775;28;20037;-75
2023/03/13 03:08:28;;;;;;;2.92;0.50;;;12.10;99.90;;;;;;4957931;28;20540;-75
2023/03/13 03:10:53;;;;;;;2.55;0.60;;;12.10;99.90;;;;;;4963793;28;20110;-75
2023/03/13 03:13:19;;;;;;;3.33;0.63;;;12.10;99.90;;;;;;4939000;29;20035;-76
2023/03/13 03:15:44;;;;;;;3.75;0.65;;;12.10;99.90;;;;;;4939672;29;20070;-75
2023/03/13 03:18:10;;;;;;;3.15;0.77;;;12.10;99.90;;;;;;4939346;29;20055;-76
2023/03/13 03:20:35;;;;;;;3.58;0.60;;;12.10;99.90;;;;;;4939807;29;20425;-74
2023/03/13 03:23:01;;;;;;;2.85;0.60;;;12.10;99.90;;;;;;4939819;29;20035;-75
2023/03/13 03:25:26;;;;;;;2.20;0.50;;;12.10;99.90;;;;;;4956083;29;20089;-75
2023/03/13 03:27:52;;;;;;;4.05;0.60;;;12.10;99.90;;;;;;4956963;29;20376;-75
2023/03/13 03:30:18;;;;;;;1.38;0.50;;;12.10;99.90;;;;;;4956295;29;20061;-76
2023/03/13 03:32:44;;;;;;;0.90;0.40;;;12.10;99.90;;;;;;4952393;28;20113;-75
2023/03/13 03:35:09;;;;;;;1.90;0.50;;;12.00;99.90;;;;;;4975818;28;20433;-74
2023/03/13 03:37:35;;;;;;;0.85;0.40;;;12.10;99.90;;;;;;4958214;28;20526;-74
2023/03/13 03:40:01;;;;;;;2.97;0.50;;;12.10;99.90;;;;;;4958028;28;20113;-74
2023/03/13 03:42:26;;;;;;;3.20;0.70;;;12.00;99.90;;;;;;4974540;28;20129;-74
2023/03/13 03:44:52;;;;;;;3.33;0.65;;;12.00;99.90;;;;;;4975001;28;20059;-75
2023/03/13 03:47:17;;;;;;;2.20;0.50;;;12.10;99.90;;;;;;4957711;28;20038;-75
2023/03/13 03:49:43;;;;;;;1.83;0.60;;;12.10;99.90;;;;;;4958393;28;20073;-74
2023/03/13 03:52:08;;;;;;;1.17;0.50;;;12.10;99.90;;;;;;4975071;28;20031;-75
2023/03/13 03:54:34;;;;;;;1.40;0.38;;;12.10;99.90;;;;;;4958048;28;20058;-74
2023/03/13 03:57:00;;;;;;;2.13;0.75;;;12.10;99.90;;;;;;4987038;28;20412;-74
2023/03/13 03:59:25;;;;;;;2.15;0.50;;;12.10;99.90;;;;;;4975840;28;20026;-76
2023/03/13 04:01:51;;;;;;;2.92;0.55;;;12.10;99.90;;;;;;4993731;28;20081;-74
2023/03/13 04:04:16;;;;;;;2.70;0.80;;;12.10;99.90;;;;;;4993595;28;20037;-75
2023/03/13 04:06:42;;;;;;;2.65;0.50;;;12.10;99.90;;;;;;4994603;28;20030;-74
2023/03/13 04:09:07;;;;;;;2.67;0.50;;;12.10;99.90;;;;;;4993500;28;20027;-74
2023/03/13 04:11:33;;;;;;;1.67;0.57;;;12.10;99.90;;;;;;4994198;28;20042;-74
2023/03/13 04:13:59;;;;;;;2.28;0.50;;;12.10;99.90;;;;;;4976539;28;20122;-74
2023/03/13 04:16:24;;;;;;;2.53;0.57;;;12.10;99.90;;;;;;4993401;28;20030;-74
2023/03/13 04:18:50;;;;;;;1.92;0.50;;;12.10;99.90;;;;;;4976580;28;20045;-74
2023/03/13 04:21:15;;;;;;;2.25;0.63;;;12.10;99.90;;;;;;4975787;28;20073;-75
2023/03/13 04:23:41;;;;;;;1.35;0.35;;;12.10;99.90;;;;;;4976618;28;20030;-74
2023/03/13 04:26:07;;;;;;;3.03;0.60;;;12.10;99.90;;;;;;4975681;28;20023;-76
2023/03/13 04:28:32;;;;;;;2.97;0.60;;;12.10;99.90;;;;;;4993645;28;20506;-75
2023/03/13 04:30:59;;;;;;;1.35;0.82;;;12.10;99.90;;;;;;4993596;28;20026;-74
2023/03/13 04:33:24;;;;;;;2.05;0.47;;;12.10;99.90;;;;;;4975521;28;20037;-74
2023/03/13 04:35:50;;;;;;;2.58;1.08;;;12.20;99.90;;;;;;4994230;28;20030;-74
2023/03/13 04:38:16;;;;;;;1.90;0.60;;;12.20;99.90;;;;;;4976021;28;20121;-74
2023/03/13 04:40:42;;;;;;;1.23;0.40;;;12.20;99.90;;;;;;4970582;28;20384;-74
2023/03/13 04:43:08;;;;;;;4.15;0.52;;;12.20;99.90;;;;;;4956730;28;20042;-76
2023/03/13 04:45:33;;;;;;;2.20;0.68;;;12.20;99.90;;;;;;4974168;28;20031;-74
2023/03/13 04:47:59;;;;;;;2.30;0.50;;;12.20;99.90;;;;;;4974088;28;20034;-75
2023/03/13 04:50:24;;;;;;;1.77;0.63;;;12.30;99.90;;;;;;4973782;28;20082;-75
2023/03/13 04:52:50;;;;;;;3.40;0.70;;;12.30;99.90;;;;;;4974397;28;20109;-74
2023/03/13 04:55:16;;;;;;;1.67;0.60;;;12.40;99.90;;;;;;4973272;28;20035;-75
2023/03/13 04:57:41;;;;;;;1.13;0.55;;;12.30;99.90;;;;;;4937886;29;20138;-73
2023/03/13 05:00:09;;;;;;;3.22;0.50;;;12.40;99.90;;;;;;4936848;29;20027;-76
2023/03/13 05:02:34;;;;;;;1.42;0.55;;;12.40;99.90;;;;;;4937515;29;20392;-73
2023/03/13 05:05:00;;;;;;;2.38;0.68;;;12.40;99.90;;;;;;4937699;29;20034;-74
2023/03/13 05:07:26;;;;;;;1.83;0.55;;;12.40;99.90;;;;;;4936395;29;20258;-73
2023/03/13 05:09:51;;;;;;;1.20;0.60;;;12.40;99.90;;;;;;4939887;28;20027;-74
2023/03/13 05:12:17;;;;;;;1.20;0.50;;;12.50;99.90;;;;;;4955263;28;20469;-74
2023/03/13 05:14:43;;;;;;;2.03;0.60;;;12.50;99.90;;;;;;4955893;28;20029;-73
2023/03/13 05:17:09;;;;;;;1.08;0.40;;;12.50;99.90;;;;;;4955176;28;20388;-73
2023/03/13 05:19:35;;;;;;;4.00;0.50;;;12.40;99.90;;;;;;4973471;28;20026;-73
2023/03/13 05:22:01;;;;;;;2.75;0.60;;;12.40;99.90;;;;;;4956146;28;20045;-73
2023/03/13 05:24:27;;;;;;;1.63;0.40;;;12.40;99.90;;;;;;4954994;28;20058;-74
2023/03/13 05:26:52;;;;;;;2.65;0.70;;;12.40;99.90;;;;;;4946596;29;20035;-74
2023/03/13 05:29:18;;;;;;;1.35;0.60;;;12.40;99.90;;;;;;4954124;29;20376;-75
2023/03/13 05:31:43;;;;;;;1.20;0.40;;;12.40;99.90;;;;;;4954466;28;20027;-75
2023/03/13 05:34:09;;;;;;;1.17;0.50;;;12.30;99.90;;;;;;4936119;29;20031;-76
2023/03/13 05:36:34;;;;;;;1.38;0.40;;;12.30;99.90;;;;;;4953872;28;20066;-74
2023/03/13 05:39:00;;;;;;;0.22;0.20;;;12.30;99.90;;;;;;4936613;29;20027;-73
2023/03/13 05:41:25;;;;;;;2.65;0.40;;;12.40;99.90;;;;;;4952376;28;20035;-74
2023/03/13 05:43:51;;;;;;;4.20;0.57;;;12.30;99.90;;;;;;4953840;29;20532;-74
2023/03/13 05:46:17;;;;;;;2.45;0.60;;;12.30;99.90;;;;;;4953569;28;20089;-75
2023/03/13 05:48:44;;;;;;;1.45;0.40;;;12.40;99.90;;;;;;4953848;29;20485;-74
2023/03/13 05:51:10;;;;;;;1.00;0.30;;;12.40;99.90;;;;;;4954130;29;20110;-75
2023/03/13 05:53:35;;;;;;;1.40;0.32;;;12.40;99.90;;;;;;4954593;28;20114;-75
2023/03/13 05:56:01;;;;;;;0.77;0.40;;;12.40;99.90;;;;;;4959514;28;20062;-76
2023/03/13 05:58:26;;;;;;;0.77;0.40;;;12.40;99.90;;;;;;4956052;28;20089;-77
2023/03/13 06:00:52;;;;;;;0.95;0.35;;;12.50;99.90;;;;;;4982881;28;20026;-77
2023/03/13 06:03:18;;;;;;;1.67;0.20;;;12.50;99.90;;;;;;4975651;28;20053;-77
2023/03/13 06:05:43;;;;;;;0.45;0.30;;;12.50;99.90;;;;;;4975675;28;20099;-77
2023/03/13 06:08:09;;;;;;;1.55;0.38;;;12.50;99.90;;;;;;4975109;28;20556;-77
2023/03/13 06:10:35;;;;;;;1.17;0.40;;;12.50;99.90;;;;;;4993446;28;20026;-76
2023/03/13 06:13:00;;;;;;;1.10;0.30;;;12.50;99.90;;;;;;4976220;28;20035;-76
2023/03/13 06:15:26;;;;;;;1.20;0.32;;;12.60;99.90;;;;;;4992634;28;20030;-76
2023/03/13 06:17:51;;;;;;;0.85;0.57;;;12.50;99.90;;;;;;4976094;28;20377;-75
2023/03/13 06:20:17;;;;;;;1.92;0.47;;;12.60;99.90;;;;;;4977575;28;20018;-75
2023/03/13 06:22:43;;;;;;;1.90;0.30;;;12.60;99.90;;;;;;4979251;28;20081;-75
2023/03/13 06:25:09;;;;;;;1.70;0.30;;;12.60;99.90;;;;;;4977829;28;20026;-75
2023/03/13 06:27:34;;;;;;;1.73;0.50;;;12.60;99.90;;;;;;4996274;28;20379;-75
2023/03/13 06:30:00;;;;;;;1.27;0.40;;;12.60;99.90;;;;;;4995285;28;20031;-75
2023/03/13 06:32:26;;;;;;;2.00;0.30;;;12.70;99.90;;;;;;4978029;28;20038;-75
2023/03/13 06:34:52;;;;;;;0.90;0.45;;;12.60;99.90;;;;;;4978733;28;20026;-74
2023/03/13 06:37:18;;;;;;;1.35;0.30;;;12.70;99.90;;;;;;4978094;28;20644;-75
2023/03/13 06:39:43;;;;;;;0.45;0.30;;;12.60;99.90;;;;;;4975066;28;20023;-74
2023/03/13 06:42:09;;;;;;;1.92;0.35;;;12.60;99.90;;;;;;4979580;28;20034;-74
2023/03/13 06:44:34;;;;;;;1.13;0.35;;;12.70;99.90;;;;;;4970056;28;20523;-74
2023/03/13 06:47:00;;;;;;;0.75;0.30;;;12.70;99.90;;;;;;4995400;28;20449;-74
2023/03/13 06:49:26;;;;;;;4.05;0.30;;;12.70;99.90;;;;;;4994542;28;20030;-73
2023/03/13 06:51:51;;;;;;;1.65;0.40;;;12.70;99.90;;;;;;4995896;28;20066;-74
2023/03/13 06:54:17;;;;;;;0.68;0.32;;;12.70;99.90;;;;;;4990761;28;20358;-76
2023/03/13 06:56:43;;;;;;;2.10;0.40;;;12.70;99.90;;;;;;4976757;28;20074;-75
2023/03/13 06:59:08;;;;;;;1.05;0.20;;;12.70;99.90;;;;;;4993562;28;20085;-74
2023/03/13 07:01:34;;;;;;;0.95;0.40;;;12.70;99.90;;;;;;4993409;28;20030;-72
2023/03/13 07:03:59;;;;;;;1.02;0.30;;;12.70;99.90;;;;;;4993818;28;20031;-74
2023/03/13 07:06:25;;;;;;;0.93;0.25;;;12.70;99.90;;;;;;4993267;28;20599;-74
2023/03/13 07:08:51;;;;;;;2.13;0.30;;;12.80;99.90;;;;;;4993802;28;20028;-74
2023/03/13 07:11:17;;;;;;;0.50;0.40;;;12.80;99.90;;;;;;4978841;28;20034;-74
2023/03/13 07:13:42;;;;;;;0.75;0.20;;;12.80;99.90;;;;;;4974719;28;20023;-75
2023/03/13 07:16:10;;;;;;;0.85;0.52;;;12.80;99.90;;;;;;4973985;28;20131;-76
2023/03/13 07:18:37;;;;;;;1.17;0.40;;;12.90;99.90;;;;;;4974798;28;20045;-75
2023/03/13 07:21:04;;;;;;;1.95;0.30;;;12.80;99.90;;;;;;4975700;28;20030;-75
2023/03/13 07:23:31;;;;;;;0.43;0.40;;;12.90;99.90;;;;;;4973627;28;20444;-75
2023/03/13 07:26:02;;;;;;;2.83;0.45;;;12.90;99.90;;;;;;4973947;28;20031;-75
2023/03/13 07:28:29;;;;;;;1.17;0.43;;;12.90;99.90;;;;;;4974648;28;20034;-75
2023/03/13 07:31:03;;;;;;;1.20;0.50;;;12.90;99.90;;;;;;4974942;28;20037;-74
2023/03/13 07:33:28;;;;;;;0.80;0.40;;;12.90;99.90;;;;;;4973687;28;20038;-75
2023/03/13 07:35:54;;;;;;;3.80;0.60;;;13.00;99.90;;;;;;4974709;28;20511;-75
2023/03/13 07:38:19;;;;;;;0.28;0.20;;;13.00;99.90;;;;;;4977786;28;20030;-75
2023/03/13 07:40:53;;;;;;;1.30;0.28;;;13.00;99.90;;;;;;4991648;28;20105;-75
2023/03/13 07:43:19;;;;;;;0.85;0.40;;;13.00;99.90;;;;;;4980263;28;20034;-75
2023/03/13 07:45:56;;;;;;;0.77;0.35;;;13.10;99.90;;;;;;4980864;28;20039;-75
2023/03/13 07:48:23;;;;;;;1.02;0.63;;;13.10;99.90;;;;;;4973465;28;20031;-75
2023/03/13 07:50:49;;;;;;;1.02;0.30;;;13.10;99.90;;;;;;4974110;28;20030;-75
2023/03/13 07:53:24;;;;;;;1.05;0.40;;;13.10;99.90;;;;;;4977898;28;20031;-76
2023/03/13 07:55:58;;;;;;;0.55;0.38;;;13.20;99.90;;;;;;4982290;28;20500;-75
2023/03/13 07:58:26;;;;;;;0.95;0.40;;;13.20;99.90;;;;;;4968523;28;20482;-75
2023/03/13 08:00:52;;;;;;;0.55;0.30;;;13.20;99.90;;;;;;4974112;28;20109;-74
2023/03/13 08:03:18;;;;;;;1.40;0.32;;;13.30;99.90;;;;;;4992949;28;20138;-73
2023/03/13 08:05:44;;;;;;;1.73;0.30;;;13.40;99.90;;;;;;4990256;28;20039;-73
2023/03/13 08:08:09;;;;;;;0.30;0.30;;;13.40;99.90;;;;;;4972854;28;20390;-73
2023/03/13 08:10:35;;;;;;;1.60;0.57;;;13.50;99.90;;;;;;4972877;28;20372;-73
2023/03/13 08:13:01;;;;;;;0.55;0.30;;;13.60;99.90;;;;;;4964066;28;20026;-73
2023/03/13 08:15:28;;;;;;;0.40;0.32;;;13.60;99.90;;;;;;4962871;28;20058;-73
2023/03/13 08:17:54;;;;;;;1.33;0.40;;;13.70;99.90;;;;;;4988170;28;20050;-71
2023/03/13 08:20:20;;;;;;;0.93;0.47;;;13.70;99.90;;;;;;4966231;28;20041;-73
2023/03/13 08:22:46;;;;;;;0.63;0.30;;;13.70;99.90;;;;;;4982774;28;20117;-72
2023/03/13 08:25:13;;;;;;;1.80;0.30;;;13.80;99.90;;;;;;4967425;28;20091;-72
2023/03/13 08:27:38;;;;;;;0.40;0.32;;;13.80;99.90;;;;;;4988847;28;20031;-72
2023/03/13 08:30:05;;;;;;;0.52;0.30;;;13.80;99.90;;;;;;4970659;28;20024;-72
2023/03/13 08:32:35;;;;;;;2.15;0.47;;;13.80;99.90;;;;;;4968864;28;20044;-72
2023/03/13 08:35:01;;;;;;;1.15;0.45;;;13.80;99.90;;;;;;4964830;28;20413;-71
2023/03/13 08:37:27;;;;;;;1.85;0.28;;;13.80;99.90;;;;;;4981370;28;20058;-72
2023/03/13 08:39:55;;;;;;;1.88;0.50;;;13.80;99.90;;;;;;4966117;28;20475;-72
2023/03/13 08:42:21;;;;;;;0.95;0.30;;;13.90;99.90;;;;;;4965463;28;20070;-73
2023/03/13 08:44:47;;;;;;;1.30;0.50;;;13.80;99.90;;;;;;4986360;28;20488;-72
2023/03/13 08:47:13;;;;;;;1.20;0.30;;;13.90;99.90;;;;;;4965831;28;20031;-72
2023/03/13 08:49:38;;;;;;;0.80;0.38;;;14.00;99.90;;;;;;4983999;28;20042;-72
2023/03/13 08:52:05;;;;;;;0.82;0.38;;;14.00;99.90;;;;;;4967093;28;20113;-73
2023/03/13 08:54:31;;;;;;;0.63;0.40;;;14.00;99.90;;;;;;4983320;28;20118;-72
2023/03/13 08:56:58;;;;;;;0.98;0.40;;;14.00;99.90;;;;;;4992055;28;20046;-72
2023/03/13 08:59:24;;;;;;;3.70;0.47;;;14.10;99.90;;;;;;4973843;28;20119;-72
2023/03/13 09:01:50;;;;;;;0.95;0.30;;;14.10;99.90;;;;;;4972328;28;20049;-71
2023/03/13 09:04:16;;;;;;;1.80;0.43;;;14.10;99.90;;;;;;4983011;28;20089;-71
2023/03/13 09:06:42;;;;;;;1.45;0.50;;;14.20;99.90;;;;;;4990674;28;20022;-72
2023/03/13 09:09:08;;;;;;;0.95;0.32;;;14.10;99.90;;;;;;4974025;28;20479;-73
2023/03/13 09:11:36;;;;;;;1.60;0.70;;;14.10;99.90;;;;;;4973615;28;20487;-72
2023/03/13 09:14:02;;;;;;;1.73;0.40;;;14.20;99.90;;;;;;4974944;28;20113;-74
2023/03/13 09:16:29;;;;;;;0.90;0.60;;;14.20;99.90;;;;;;4964314;28;20261;-73
2023/03/13 09:18:55;;;;;;;3.28;0.50;;;14.30;99.90;;;;;;4966561;28;20022;-74
2023/03/13 09:21:33;;;;;;;2.05;0.80;;;14.40;99.90;;;;;;4970588;28;20034;-73
2023/03/13 09:23:59;;;;;;;1.77;0.35;;;14.50;99.90;;;;;;4991776;28;20448;-72
2023/03/13 09:26:25;;;;;;;0.95;0.55;;;14.60;99.90;;;;;;4991488;28;20026;-73
2023/03/13 09:28:52;;;;;;;2.17;0.60;;;14.70;99.90;;;;;;4991758;28;20030;-73
2023/03/13 09:31:26;;;;;;;3.28;0.68;;;14.80;99.90;;;;;;4986977;28;20030;-73
2023/03/13 09:33:53;;;;;;;0.85;0.65;;;14.80;99.90;;;;;;4974802;28;20475;-73
2023/03/13 09:36:19;;;;;;;1.17;0.57;;;14.90;99.90;;;;;;4988285;28;20089;-74
2023/03/13 09:38:45;;;;;;;0.47;0.47;;;14.90;99.90;;;;;;4964463;28;20031;-73
2023/03/13 09:41:17;;;;;;;1.65;0.52;;;15.10;99.90;;;;;;4987466;28;20534;-73
2023/03/13 09:43:54;;;;;;;1.45;0.50;;;15.10;99.90;;;;;;4984022;28;20034;-73
2023/03/13 09:46:30;;;;;;;1.88;0.90;;;15.20;99.90;;;;;;4980790;28;20035;-74
2023/03/13 09:49:04;;;;;;;1.02;0.68;;;15.20;99.90;;;;;;4970483;28;20035;-72
2023/03/13 09:51:37;;;;;;;5.57;0.88;;;15.40;99.90;;;;;;4968380;28;20494;-72
2023/03/13 09:54:23;;;;;;;1.17;0.65;;;15.40;99.90;;;;;;4971072;28;20030;-73
2023/03/13 09:57:16;;;;;;;3.60;0.60;;;15.40;99.90;;;;;;4984742;28;20047;-73
2023/03/13 09:59:54;;;;;;;0.90;0.40;;;15.50;99.90;;;;;;4974604;28;20369;-73
2023/03/13 10:02:28;;;;;;;2.95;0.70;;;15.50;99.90;;;;;;4986610;28;20129;-73
2023/03/13 10:05:20;;;;;;;2.38;0.70;;;15.50;99.90;;;;;;4982484;28;20035;-73
2023/03/13 10:07:45;;;;;;;2.47;1.10;;;15.50;99.90;;;;;;4990022;28;20027;-73
2023/03/13 10:10:39;;;;;;;0.80;0.60;;;15.50;99.90;;;;;;4987917;28;20030;-73
2023/03/13 10:13:16;;;;;;;1.67;0.90;;;15.50;99.90;;;;;;4987151;28;20069;-74
2023/03/13 10:15:49;;;;;;;1.23;0.50;;;15.60;99.90;;;;;;4982516;28;20026;-73
2023/03/13 10:18:20;;;;;;;1.55;0.50;;;15.60;99.90;;;;;;4984363;28;20548;-73
2023/03/13 10:20:59;;;;;;;2.10;0.63;;;15.60;99.90;;;;;;4985931;28;20031;-71
2023/03/13 10:23:45;;;;;;;2.15;0.80;;;15.70;99.90;;;;;;4985080;28;20121;-74
2023/03/13 10:26:35;;;;;;;2.78;0.75;;;15.80;99.90;;;;;;4987648;28;20037;-74
2023/03/13 10:29:22;;;;;;;1.45;0.80;;;15.90;99.90;;;;;;4982945;28;20022;-74
2023/03/13 10:32:03;;;;;;;2.05;0.70;;;16.00;99.90;;;;;;5002941;28;20434;-73
2023/03/13 10:34:43;;;;;;;1.88;0.82;;;15.90;99.90;;;;;;4989758;28;20493;-74
2023/03/13 10:37:13;;;;;;;1.98;0.80;;;15.90;99.90;;;;;;4983049;28;20031;-74
2023/03/13 10:39:38;;;;;;;1.67;0.70;;;15.90;99.90;;;;;;4989371;28;20030;-73
2023/03/13 10:42:29;;;;;;;4.50;0.60;;;15.80;99.90;;;;;;4984173;28;20526;-74
2023/03/13 10:44:58;;;;;;;1.25;0.68;;;15.80;99.90;;;;;;4979484;28;20035;-73
2023/03/13 10:47:23;;;;;;;1.15;0.75;;;16.00;99.90;;;;;;4989849;28;20113;-73
2023/03/13 10:49:56;;;;;;;2.40;1.02;;;16.10;99.90;;;;;;4985951;28;20117;-73
2023/03/13 10:52:30;;;;;;;0.85;0.60;;;16.10;99.90;;;;;;4993772;28;20068;-71
2023/03/13 10:55:03;;;;;;;0.90;0.60;;;16.10;99.90;;;;;;4987118;28;20035;-73
2023/03/13 10:57:35;;;;;;;1.33;0.60;;;16.10;99.90;;;;;;4983107;28;20047;-73
2023/03/13 11:00:22;;;;;;;0.95;0.75;;;16.10;99.90;;;;;;4971894;28;20073;-73
2023/03/13 11:02:47;;;;;;;1.50;0.90;;;16.20;99.90;;;;;;4966368;28;20082;-74
2023/03/13 11:05:22;;;;;;;2.17;0.98;;;16.30;99.90;;;;;;4974183;28;20030;-74
2023/03/13 11:07:49;;;;;;;0.68;0.60;;;16.40;99.90;;;;;;4963477;28;20033;-73
2023/03/13 11:10:25;;;;;;;2.55;0.60;;;16.40;99.90;;;;;;4966322;28;20399;-73
2023/03/13 11:12:53;;;;;;;3.50;0.75;;;16.50;99.90;;;;;;4994343;28;20030;-74
2023/03/13 11:15:34;;;;;;;1.70;0.70;;;16.60;99.90;;;;;;4993320;28;20088;-74
2023/03/13 11:18:13;;;;;;;2.63;0.80;;;16.70;99.90;;;;;;4989112;28;20048;-73
2023/03/13 11:20:40;;;;;;;2.05;0.90;;;16.80;99.90;;;;;;4965159;28;20030;-73
2023/03/13 11:23:28;;;;;;;1.52;0.63;;;16.80;99.90;;;;;;4967571;28;20093;-75
2023/03/13 11:26:10;;;;;;;1.42;1.00;;;16.90;99.90;;;;;;4991826;28;20085;-73
2023/03/13 11:28:57;;;;;;;2.17;1.23;;;17.00;99.90;;;;;;4975188;28;20031;-74
2023/03/13 11:31:34;;;;;;;2.47;1.23;;;17.30;99.90;;;;;;4973246;28;20112;-76
2023/03/13 11:34:26;;;;;;;1.70;1.05;;;17.60;99.90;;;;;;4975540;28;20023;-74
2023/03/13 11:36:58;;;;;;;1.00;0.70;;;17.80;99.90;;;;;;4987487;28;20383;-74
2023/03/13 11:39:23;;;;;;;;;;;17.80;99.90;;;;;;4978689;28;20102;-73
2023/03/13 11:42:18;;;;;;;1.30;0.80;;;17.90;99.90;;;;;;4992411;28;20012;-73
2023/03/13 11:44:50;;;;;;;1.83;0.60;;;17.90;99.90;;;;;;4976316;28;20049;-73
2023/03/13 11:47:24;;;;;;;2.42;0.90;;;18.10;99.90;;;;;;4991296;28;20070;-73
2023/03/13 11:50:07;;;;;;;1.75;0.68;;;18.20;99.90;;;;;;4975998;28;20033;-73
2023/03/13 11:52:36;;;;;;;1.70;0.57;;;18.20;99.90;;;;;;4991057;28;20030;-73
2023/03/13 11:55:25;;;;;;;1.02;0.65;;;18.40;99.90;;;;;;4989070;28;20108;-74
2023/03/13 11:58:28;;;;;;;2.22;0.80;;;18.50;99.90;;;;;;4968793;28;20043;-73
2023/03/13 12:01:09;;;;;;;3.00;0.73;;;18.60;99.90;;;;;;4968963;28;20488;-73
2023/03/13 12:03:59;;;;;;;4.68;0.95;;;18.50;99.90;;;;;;4974505;28;20114;-73
2023/03/13 12:06:36;;;;;;;2.60;0.80;;;18.50;99.90;;;;;;4972513;28;20027;-73
2023/03/13 12:09:29;;;;;;;1.52;0.80;;;18.70;99.90;;;;;;4973028;28;20023;-73
2023/03/13 12:12:03;;;;;;;2.35;0.60;;;18.80;99.90;;;;;;4974061;28;20027;-73
2023/03/13 12:14:37;;;;;;;2.35;0.63;;;18.90;99.90;;;;;;4973202;28;20097;-74
2023/03/13 12:17:08;;;;;;;3.30;0.73;;;18.90;99.90;;;;;;4970039;28;20026;-73
2023/03/13 12:19:51;;;;;;;1.33;0.70;;;19.00;99.90;;;;;;4969807;28;20046;-73
2023/03/13 12:22:23;;;;;;;2.15;0.77;;;19.20;99.90;;;;;;4944529;28;20440;-73
2023/03/13 12:24:57;;;;;;;3.42;1.00;;;19.40;99.90;;;;;;4963143;28;20031;-74
2023/03/13 12:27:33;;;;;;;1.45;0.77;;;19.70;99.90;;;;;;4949969;28;20114;-75
2023/03/13 12:30:21;;;;;;;2.45;0.70;;;19.80;99.90;;;;;;4971944;28;20018;-75
2023/03/13 12:33:02;;;;;;;1.80;0.73;;;19.80;99.90;;;;;;4971817;28;20070;-74
2023/03/13 12:35:32;;;;;;;1.45;0.60;;;19.80;99.90;;;;;;4943226;28;20034;-74
2023/03/13 12:38:25;;;;;;;1.02;0.70;;;19.90;99.90;;;;;;5106062;27;20341;-75
2023/03/13 12:41:23;;;;;;;1.27;0.75;;;20.20;99.90;;;;;;5093414;28;20020;-73
2023/03/13 12:43:51;;;;;;;1.20;0.70;;;20.30;99.90;;;;;;5064188;28;20055;-73
2023/03/13 12:46:26;;;;;;;4.07;0.60;;;20.50;99.90;;;;;;5080265;28;20033;-73
2023/03/13 12:49:41;;;;;;;2.92;0.88;;;20.60;99.10;;;;;;5073071;28;20027;-73
2023/03/13 12:52:28;;;;;;;2.80;1.08;;;20.70;98.50;;;;;;5068435;28;20040;-76
2023/03/13 12:55:12;;;;;;;1.60;0.80;;;20.60;97.20;;;;;;5084524;28;20031;-74
2023/03/13 12:57:53;;;;;;;0.77;0.70;;;20.60;96.90;;;;;;5073712;28;20020;-72
2023/03/13 13:00:25;;;;;;;1.70;0.80;;;20.70;96.90;;;;;;5089355;28;20027;-73